x

Buoy F01 - West Penobscot Bay (44033) Wave Buoy

3:04 - Thu 30th Mar 2017 All times are EDT. -4 hours from GMT.

  • Sig Wave height 2.0ft
  • Peak Period 3s
  • Wind
    18mph, 22mph gusts
  • Sea Temp 37°f
  • Ar Temp 39°f
  • Sea Pressure 1018.8mb
  • Buoy F01 - West Penobscot Bay
  • Buoy F01 - West Penobscot Bay

More Historic Weather Station data

Upgrade to MSW Pro to gain access to the past 30 days of data for over 8000 Wavebouys and Weather Stations around the globe.

Join Pro

Comparision Forecast

View Surf forecast
   
Qui 03/30 3:04 2ft 3s 18 22 mph 1018.8mb 37f 39f
2:04  -   -  18 20 mph 1019.1mb - 39f
12:04 2ft 4s 16 20 mph 1019.7mb 37f 37f
11:04 1.3ft 3s  -  mph - 37f -
7:04 1.6ft 3s 20 22 mph 1020.1mb 37f 34f
6:04 2ft 3s 22 25 mph 1019.2mb 36f 34f
5:04 2.5ft 3s 20 27 mph 1018mb 37f 34f
4:04 2.5ft 3s 22 27 mph 1017.6mb 37f 35f
3:04  -   -  20 25 mph 1017.8mb - 36f
2:04 2ft 3s  -  mph - 37f -
1:04 2ft 3s  -  mph - 37f -
12:04 2.5ft 6s  -  mph - 37f -
Qua 03/29 10:04 2ft 3s  -  mph - 36f -
8:04 1.6ft 3s  -  mph - 36f -
6:04 1ft 3s 11 13 mph 1015.2mb 37f 40f
5:04 1.6ft 8s 18 20 mph 1014.5mb 36f 41f
4:04 1.6ft 3s 13 16 mph 1014.4mb 37f 39f
3:04 2ft 8s 13 16 mph 1014.6mb 37f 39f
1:04 1.6ft 6s 13 16 mph 1014.9mb 37f 37f
12:04 2ft 8s 13 16 mph 1014.8mb 36f 37f
11:04 2ft 8s 16 20 mph 1014.9mb 36f 37f
10:04 2.5ft 8s 16 18 mph 1015mb 36f 36f
9:04 1.3ft 3s 16 18 mph 1015.2mb 36f 36f
8:04 1.3ft 3s 16 18 mph 1015.5mb 36f 35f
7:04 2.5ft 6s 13 16 mph 1015.2mb 36f 35f
6:04 2ft 6s 16 18 mph 1015.1mb 36f 34f
5:04 1ft 2s 13 16 mph 1014.6mb 36f 35f
2:04  -   -  11 13 mph 1014.5mb - 35f
1:04 1.6ft 6s 9
mph
1015.2mb 36f 35f
Ter 03/28 11:04 2ft 6s 7 9 mph 1015.2mb 36f 35f
10:04 2ft 6s 9
mph
1015.4mb 36f 35f
9:04 1.6ft 6s 7 9 mph 1015.9mb 36f 36f
8:04 2ft 6s 4 7 mph 1016mb 36f 36f
7:04 2ft 6s 4
mph
1016mb 36f 36f
6:04 2ft 6s 9
mph
1015.6mb 36f 36f
5:04 2ft 8s 2 4 mph 1016mb 37f 35f
4:04 1.6ft 8s 4
mph
1016mb 36f 35f
10:04 2ft 6s 9 11 mph 1016.6mb 37f 34f
9:04 2ft 6s 7 9 mph 1017.1mb 36f 34f
8:04 2.5ft 6s 11 13 mph 1016.6mb 36f 34f
7:04 2.5ft 8s 13 16 mph 1016.5mb 36f 33f
6:04 2.5ft 6s 11 16 mph 1016.5mb 36f 34f
5:04 2.5ft 8s 13 16 mph 1016.1mb 36f 34f
4:04 3.5ft 6s 13 16 mph 1016mb 36f 34f
3:04 4ft 8s 13 16 mph 1016.3mb 36f 34f
2:04 3.5ft 6s 16 18 mph 1016.2mb 36f 34f
1:04 4.5ft 8s 18 20 mph 1015.5mb 37f 34f
12:04 4.5ft 8s 18 20 mph 1015.5mb 37f 34f
Seg 03/27 11:04 4.5ft 8s 18 20 mph 1015.7mb 37f 34f
10:04 4.5ft 8s  -  mph - 37f -
8:04 5ft 6s  -  mph - 36f -
5:04 4.5ft 6s 16 18 mph 1019.5mb 36f 34f
4:04 4.5ft 6s 11 16 mph 1020.9mb 36f 34f
3:04 3.5ft 6s 20 25 mph 1020.5mb 36f 35f
2:04 3.5ft 5s 22 27 mph 1021.7mb 36f 35f
1:04 3ft 5s 20 25 mph 1023mb 37f 35f
12:04  -   -  20 22 mph 1024.1mb - 35f
11:04 2.5ft 5s 18 22 mph 1024.8mb 37f 35f
10:04 2.5ft 4s 18 20 mph 1025.5mb 37f 36f
9:04 2ft 3s 18 20 mph 1026mb 37f 36f
8:04 1.6ft 3s 16 18 mph 1026.7mb 36f 36f
7:04  -   -  16 18 mph 1027mb - 35f
6:04 1ft 8s 11 13 mph 1027.8mb 36f 35f
5:04 1ft 8s 9
mph
1028.4mb 36f 33f
4:04 0.7ft  -  7 9 mph 1028.9mb 36f 34f
2:04 1ft 8s 4 7 mph 1029.8mb 36f 33f
1:04 1ft 6s 7 9 mph 1030mb 36f 34f
12:04 1ft 8s 7 9 mph 1030.2mb 36f 34f
Dom 03/26 11:04 1.3ft 8s 9 11 mph 1030.8mb 36f 34f
10:04 1ft 2s 9
mph
1031.2mb 37f 33f
9:04 1ft 2s 11 13 mph 1032.2mb 37f 33f